sensor_id;sensor_type;location;lat;lon;timestamp;P1;durP1;ratioP1;P2;durP2;ratioP2
36747;SDS011;22716;51.556;5.080;2022-08-19T00:02:14;22.67;;;17.95;;
36747;SDS011;22716;51.556;5.080;2022-08-19T00:04:43;21.27;;;18.00;;
36747;SDS011;22716;51.556;5.080;2022-08-19T00:07:16;22.42;;;16.65;;
36747;SDS011;22716;51.556;5.080;2022-08-19T00:09:46;23.33;;;17.77;;
36747;SDS011;22716;51.556;5.080;2022-08-19T00:12:16;20.17;;;16.75;;
36747;SDS011;22716;51.556;5.080;2022-08-19T00:14:46;19.40;;;17.43;;
36747;SDS011;22716;51.556;5.080;2022-08-19T00:17:19;18.77;;;16.77;;
36747;SDS011;22716;51.556;5.080;2022-08-19T00:19:53;21.40;;;18.20;;
36747;SDS011;22716;51.556;5.080;2022-08-19T00:22:24;18.53;;;16.33;;
36747;SDS011;22716;51.556;5.080;2022-08-19T00:24:53;20.67;;;17.87;;
36747;SDS011;22716;51.556;5.080;2022-08-19T00:27:22;23.10;;;17.65;;
36747;SDS011;22716;51.556;5.080;2022-08-19T00:29:52;19.80;;;17.13;;
36747;SDS011;22716;51.556;5.080;2022-08-19T00:32:21;21.30;;;18.60;;
36747;SDS011;22716;51.556;5.080;2022-08-19T00:34:51;18.80;;;15.73;;
36747;SDS011;22716;51.556;5.080;2022-08-19T00:37:20;21.70;;;16.60;;
36747;SDS011;22716;51.556;5.080;2022-08-19T00:39:54;22.97;;;18.50;;
36747;SDS011;22716;51.556;5.080;2022-08-19T00:42:24;23.25;;;17.60;;
36747;SDS011;22716;51.556;5.080;2022-08-19T00:44:56;24.43;;;18.57;;
36747;SDS011;22716;51.556;5.080;2022-08-19T00:47:25;23.13;;;17.50;;
36747;SDS011;22716;51.556;5.080;2022-08-19T00:49:56;23.00;;;18.47;;
36747;SDS011;22716;51.556;5.080;2022-08-19T00:52:44;20.97;;;18.53;;
36747;SDS011;22716;51.556;5.080;2022-08-19T00:55:16;18.70;;;16.73;;
36747;SDS011;22716;51.556;5.080;2022-08-19T00:57:54;20.43;;;17.73;;
36747;SDS011;22716;51.556;5.080;2022-08-19T01:00:30;23.20;;;17.93;;
36747;SDS011;22716;51.556;5.080;2022-08-19T01:03:11;20.90;;;17.77;;
36747;SDS011;22716;51.556;5.080;2022-08-19T01:05:46;19.03;;;15.80;;
36747;SDS011;22716;51.556;5.080;2022-08-19T01:08:20;22.00;;;18.23;;
36747;SDS011;22716;51.556;5.080;2022-08-19T01:10:49;20.97;;;17.57;;
36747;SDS011;22716;51.556;5.080;2022-08-19T01:13:30;20.90;;;17.13;;
36747;SDS011;22716;51.556;5.080;2022-08-19T01:16:03;19.37;;;17.27;;
36747;SDS011;22716;51.556;5.080;2022-08-19T01:18:39;23.20;;;19.03;;
36747;SDS011;22716;51.556;5.080;2022-08-19T01:21:12;21.98;;;18.20;;
36747;SDS011;22716;51.556;5.080;2022-08-19T01:24:03;25.10;;;18.23;;
36747;SDS011;22716;51.556;5.080;2022-08-19T01:26:34;21.87;;;17.73;;
36747;SDS011;22716;51.556;5.080;2022-08-19T01:29:17;21.27;;;16.93;;
36747;SDS011;22716;51.556;5.080;2022-08-19T01:31:46;20.70;;;17.23;;
36747;SDS011;22716;51.556;5.080;2022-08-19T01:34:21;22.50;;;18.33;;
36747;SDS011;22716;51.556;5.080;2022-08-19T01:36:51;22.00;;;17.10;;
36747;SDS011;22716;51.556;5.080;2022-08-19T01:39:24;21.27;;;17.17;;
36747;SDS011;22716;51.556;5.080;2022-08-19T01:41:54;21.70;;;17.77;;
36747;SDS011;22716;51.556;5.080;2022-08-19T01:44:23;19.23;;;16.27;;
36747;SDS011;22716;51.556;5.080;2022-08-19T01:46:52;17.25;;;15.43;;
36747;SDS011;22716;51.556;5.080;2022-08-19T01:49:22;25.38;;;17.02;;
36747;SDS011;22716;51.556;5.080;2022-08-19T01:51:56;21.43;;;18.00;;
36747;SDS011;22716;51.556;5.080;2022-08-19T01:54:30;22.17;;;17.53;;
36747;SDS011;22716;51.556;5.080;2022-08-19T01:57:08;21.00;;;18.90;;
36747;SDS011;22716;51.556;5.080;2022-08-19T01:59:41;25.20;;;17.53;;
36747;SDS011;22716;51.556;5.080;2022-08-19T02:02:13;19.87;;;17.13;;
36747;SDS011;22716;51.556;5.080;2022-08-19T02:04:42;27.27;;;19.10;;
36747;SDS011;22716;51.556;5.080;2022-08-19T02:07:12;20.47;;;17.90;;
36747;SDS011;22716;51.556;5.080;2022-08-19T02:09:43;22.93;;;18.40;;
36747;SDS011;22716;51.556;5.080;2022-08-19T02:12:13;22.60;;;18.30;;
36747;SDS011;22716;51.556;5.080;2022-08-19T02:14:43;21.43;;;18.20;;
36747;SDS011;22716;51.556;5.080;2022-08-19T02:17:12;19.23;;;16.47;;
36747;SDS011;22716;51.556;5.080;2022-08-19T02:19:43;23.07;;;19.47;;
36747;SDS011;22716;51.556;5.080;2022-08-19T02:22:15;27.13;;;18.47;;
36747;SDS011;22716;51.556;5.080;2022-08-19T02:24:47;21.60;;;18.57;;
36747;SDS011;22716;51.556;5.080;2022-08-19T02:27:16;27.10;;;24.20;;
36747;SDS011;22716;51.556;5.080;2022-08-19T02:29:46;26.63;;;20.33;;
36747;SDS011;22716;51.556;5.080;2022-08-19T02:32:15;25.07;;;19.70;;
36747;SDS011;22716;51.556;5.080;2022-08-19T02:34:46;25.47;;;21.67;;
36747;SDS011;22716;51.556;5.080;2022-08-19T02:37:15;28.55;;;21.52;;
36747;SDS011;22716;51.556;5.080;2022-08-19T02:39:59;27.70;;;21.87;;
36747;SDS011;22716;51.556;5.080;2022-08-19T02:42:28;24.53;;;20.63;;
36747;SDS011;22716;51.556;5.080;2022-08-19T02:44:57;25.83;;;22.90;;
36747;SDS011;22716;51.556;5.080;2022-08-19T02:47:26;28.03;;;22.53;;
36747;SDS011;22716;51.556;5.080;2022-08-19T02:49:55;28.03;;;23.03;;
36747;SDS011;22716;51.556;5.080;2022-08-19T02:52:31;27.20;;;22.43;;
36747;SDS011;22716;51.556;5.080;2022-08-19T02:55:03;30.63;;;22.87;;
36747;SDS011;22716;51.556;5.080;2022-08-19T02:57:36;26.97;;;22.10;;
36747;SDS011;22716;51.556;5.080;2022-08-19T03:00:07;25.63;;;22.37;;
36747;SDS011;22716;51.556;5.080;2022-08-19T03:02:37;26.13;;;22.97;;
36747;SDS011;22716;51.556;5.080;2022-08-19T03:05:07;29.20;;;23.83;;
36747;SDS011;22716;51.556;5.080;2022-08-19T03:07:43;26.60;;;22.00;;
36747;SDS011;22716;51.556;5.080;2022-08-19T03:10:15;27.50;;;21.83;;
36747;SDS011;22716;51.556;5.080;2022-08-19T03:12:45;29.23;;;22.77;;
36747;SDS011;22716;51.556;5.080;2022-08-19T03:15:34;28.77;;;22.87;;
36747;SDS011;22716;51.556;5.080;2022-08-19T03:18:03;32.00;;;23.50;;
36747;SDS011;22716;51.556;5.080;2022-08-19T03:20:33;34.00;;;23.43;;
36747;SDS011;22716;51.556;5.080;2022-08-19T03:23:02;28.73;;;24.60;;
36747;SDS011;22716;51.556;5.080;2022-08-19T03:25:33;29.17;;;23.67;;
36747;SDS011;22716;51.556;5.080;2022-08-19T03:28:07;29.37;;;25.07;;
36747;SDS011;22716;51.556;5.080;2022-08-19T03:30:36;30.03;;;24.03;;
36747;SDS011;22716;51.556;5.080;2022-08-19T03:33:05;36.37;;;26.37;;
36747;SDS011;22716;51.556;5.080;2022-08-19T03:35:37;35.33;;;26.37;;
36747;SDS011;22716;51.556;5.080;2022-08-19T03:38:07;37.67;;;26.43;;
36747;SDS011;22716;51.556;5.080;2022-08-19T03:40:39;35.63;;;27.23;;
36747;SDS011;22716;51.556;5.080;2022-08-19T03:43:09;38.77;;;27.00;;
36747;SDS011;22716;51.556;5.080;2022-08-19T03:45:37;38.03;;;28.30;;
36747;SDS011;22716;51.556;5.080;2022-08-19T03:48:06;30.43;;;24.57;;
36747;SDS011;22716;51.556;5.080;2022-08-19T03:50:38;35.30;;;27.33;;
36747;SDS011;22716;51.556;5.080;2022-08-19T03:53:09;39.78;;;29.75;;
36747;SDS011;22716;51.556;5.080;2022-08-19T03:55:48;39.27;;;31.03;;
36747;SDS011;22716;51.556;5.080;2022-08-19T03:58:18;40.83;;;30.03;;
36747;SDS011;22716;51.556;5.080;2022-08-19T04:00:47;51.80;;;29.43;;
36747;SDS011;22716;51.556;5.080;2022-08-19T04:03:15;40.00;;;30.40;;
36747;SDS011;22716;51.556;5.080;2022-08-19T04:05:45;46.17;;;31.77;;
36747;SDS011;22716;51.556;5.080;2022-08-19T04:08:15;45.37;;;34.20;;
36747;SDS011;22716;51.556;5.080;2022-08-19T04:13:20;44.77;;;33.20;;
36747;SDS011;22716;51.556;5.080;2022-08-19T04:15:49;49.53;;;33.50;;
36747;SDS011;22716;51.556;5.080;2022-08-19T04:18:18;39.27;;;30.53;;
36747;SDS011;22716;51.556;5.080;2022-08-19T04:20:47;45.63;;;33.60;;
36747;SDS011;22716;51.556;5.080;2022-08-19T04:23:16;47.83;;;35.37;;
36747;SDS011;22716;51.556;5.080;2022-08-19T04:25:45;42.53;;;31.87;;
36747;SDS011;22716;51.556;5.080;2022-08-19T04:28:17;43.47;;;32.50;;
36747;SDS011;22716;51.556;5.080;2022-08-19T04:30:46;48.80;;;33.67;;
36747;SDS011;22716;51.556;5.080;2022-08-19T04:33:21;46.83;;;34.23;;
36747;SDS011;22716;51.556;5.080;2022-08-19T04:35:59;48.70;;;34.20;;
36747;SDS011;22716;51.556;5.080;2022-08-19T04:38:28;49.03;;;35.43;;
36747;SDS011;22716;51.556;5.080;2022-08-19T04:40:58;53.23;;;35.77;;
36747;SDS011;22716;51.556;5.080;2022-08-19T04:44:03;50.23;;;35.90;;
36747;SDS011;22716;51.556;5.080;2022-08-19T04:46:38;48.93;;;34.23;;
36747;SDS011;22716;51.556;5.080;2022-08-19T04:49:08;50.17;;;37.50;;
36747;SDS011;22716;51.556;5.080;2022-08-19T04:51:39;63.43;;;33.77;;
36747;SDS011;22716;51.556;5.080;2022-08-19T04:54:13;53.37;;;35.47;;
36747;SDS011;22716;51.556;5.080;2022-08-19T04:56:52;48.57;;;36.17;;
36747;SDS011;22716;51.556;5.080;2022-08-19T04:59:24;52.07;;;34.43;;
36747;SDS011;22716;51.556;5.080;2022-08-19T05:01:53;46.43;;;33.10;;
36747;SDS011;22716;51.556;5.080;2022-08-19T05:04:22;53.70;;;35.73;;
36747;SDS011;22716;51.556;5.080;2022-08-19T05:06:51;50.87;;;33.27;;
36747;SDS011;22716;51.556;5.080;2022-08-19T05:09:20;46.60;;;33.20;;
36747;SDS011;22716;51.556;5.080;2022-08-19T05:11:49;47.97;;;33.83;;
36747;SDS011;22716;51.556;5.080;2022-08-19T05:14:18;50.67;;;33.07;;
36747;SDS011;22716;51.556;5.080;2022-08-19T05:16:51;48.23;;;33.83;;
36747;SDS011;22716;51.556;5.080;2022-08-19T05:19:20;46.53;;;32.97;;
36747;SDS011;22716;51.556;5.080;2022-08-19T05:22:02;50.10;;;32.80;;
36747;SDS011;22716;51.556;5.080;2022-08-19T05:24:44;52.33;;;35.80;;
36747;SDS011;22716;51.556;5.080;2022-08-19T05:27:25;44.17;;;31.87;;
36747;SDS011;22716;51.556;5.080;2022-08-19T05:29:53;47.70;;;31.57;;
36747;SDS011;22716;51.556;5.080;2022-08-19T05:32:25;45.93;;;32.77;;
36747;SDS011;22716;51.556;5.080;2022-08-19T05:34:54;47.53;;;32.13;;
36747;SDS011;22716;51.556;5.080;2022-08-19T05:37:24;46.20;;;32.17;;
36747;SDS011;22716;51.556;5.080;2022-08-19T05:39:54;46.43;;;32.73;;
36747;SDS011;22716;51.556;5.080;2022-08-19T05:42:23;54.20;;;32.93;;
36747;SDS011;22716;51.556;5.080;2022-08-19T05:44:52;49.90;;;33.90;;
36747;SDS011;22716;51.556;5.080;2022-08-19T05:47:22;44.70;;;31.73;;
36747;SDS011;22716;51.556;5.080;2022-08-19T05:50:04;43.23;;;29.80;;
36747;SDS011;22716;51.556;5.080;2022-08-19T05:52:33;48.20;;;31.80;;
36747;SDS011;22716;51.556;5.080;2022-08-19T05:55:07;48.70;;;30.80;;
36747;SDS011;22716;51.556;5.080;2022-08-19T05:57:36;42.63;;;27.67;;
36747;SDS011;22716;51.556;5.080;2022-08-19T06:00:06;41.93;;;29.53;;
36747;SDS011;22716;51.556;5.080;2022-08-19T06:02:44;47.43;;;31.03;;
36747;SDS011;22716;51.556;5.080;2022-08-19T06:05:16;37.73;;;27.67;;
36747;SDS011;22716;51.556;5.080;2022-08-19T06:07:47;44.50;;;30.67;;
36747;SDS011;22716;51.556;5.080;2022-08-19T06:10:17;41.37;;;27.53;;
36747;SDS011;22716;51.556;5.080;2022-08-19T06:12:47;39.83;;;26.93;;
36747;SDS011;22716;51.556;5.080;2022-08-19T06:15:17;43.30;;;28.57;;
36747;SDS011;22716;51.556;5.080;2022-08-19T06:17:47;41.93;;;28.00;;
36747;SDS011;22716;51.556;5.080;2022-08-19T06:20:19;46.07;;;29.07;;
36747;SDS011;22716;51.556;5.080;2022-08-19T06:22:49;42.23;;;29.40;;
36747;SDS011;22716;51.556;5.080;2022-08-19T06:25:18;51.13;;;30.93;;
36747;SDS011;22716;51.556;5.080;2022-08-19T06:30:26;48.00;;;30.77;;
36747;SDS011;22716;51.556;5.080;2022-08-19T06:32:56;43.50;;;31.00;;
36747;SDS011;22716;51.556;5.080;2022-08-19T06:35:28;43.87;;;28.87;;
36747;SDS011;22716;51.556;5.080;2022-08-19T06:37:57;47.07;;;30.37;;
36747;SDS011;22716;51.556;5.080;2022-08-19T06:40:26;44.00;;;29.07;;
36747;SDS011;22716;51.556;5.080;2022-08-19T06:42:56;45.67;;;29.47;;
36747;SDS011;22716;51.556;5.080;2022-08-19T06:45:27;41.33;;;28.80;;
36747;SDS011;22716;51.556;5.080;2022-08-19T06:47:56;42.87;;;30.10;;
36747;SDS011;22716;51.556;5.080;2022-08-19T06:50:27;40.33;;;27.40;;
36747;SDS011;22716;51.556;5.080;2022-08-19T06:53:00;42.87;;;30.03;;
36747;SDS011;22716;51.556;5.080;2022-08-19T06:55:31;41.90;;;29.70;;
36747;SDS011;22716;51.556;5.080;2022-08-19T06:58:01;49.88;;;32.72;;
36747;SDS011;22716;51.556;5.080;2022-08-19T07:00:40;43.97;;;29.30;;
36747;SDS011;22716;51.556;5.080;2022-08-19T07:03:13;42.27;;;31.87;;
36747;SDS011;22716;51.556;5.080;2022-08-19T07:05:44;37.83;;;28.47;;
36747;SDS011;22716;51.556;5.080;2022-08-19T07:08:13;42.83;;;29.53;;
36747;SDS011;22716;51.556;5.080;2022-08-19T07:10:43;41.67;;;29.27;;
36747;SDS011;22716;51.556;5.080;2022-08-19T07:13:21;43.63;;;31.47;;
36747;SDS011;22716;51.556;5.080;2022-08-19T07:15:52;49.03;;;30.33;;
36747;SDS011;22716;51.556;5.080;2022-08-19T07:18:31;41.20;;;28.10;;
36747;SDS011;22716;51.556;5.080;2022-08-19T07:21:07;44.93;;;29.97;;
36747;SDS011;22716;51.556;5.080;2022-08-19T07:23:38;42.87;;;28.70;;
36747;SDS011;22716;51.556;5.080;2022-08-19T07:26:07;44.27;;;29.87;;
36747;SDS011;22716;51.556;5.080;2022-08-19T07:28:40;41.67;;;28.30;;
36747;SDS011;22716;51.556;5.080;2022-08-19T07:31:14;40.17;;;27.48;;
36747;SDS011;22716;51.556;5.080;2022-08-19T07:33:46;41.07;;;29.10;;
36747;SDS011;22716;51.556;5.080;2022-08-19T07:36:21;48.90;;;28.83;;
36747;SDS011;22716;51.556;5.080;2022-08-19T07:38:56;37.80;;;27.10;;
36747;SDS011;22716;51.556;5.080;2022-08-19T07:41:26;38.60;;;29.30;;
36747;SDS011;22716;51.556;5.080;2022-08-19T07:43:57;38.43;;;29.13;;
36747;SDS011;22716;51.556;5.080;2022-08-19T07:46:29;43.80;;;30.93;;
36747;SDS011;22716;51.556;5.080;2022-08-19T07:48:59;54.93;;;32.97;;
36747;SDS011;22716;51.556;5.080;2022-08-19T07:51:31;53.33;;;33.77;;
36747;SDS011;22716;51.556;5.080;2022-08-19T07:54:00;54.77;;;33.73;;
36747;SDS011;22716;51.556;5.080;2022-08-19T07:56:28;52.17;;;33.53;;
36747;SDS011;22716;51.556;5.080;2022-08-19T07:58:58;52.57;;;33.23;;
36747;SDS011;22716;51.556;5.080;2022-08-19T08:01:26;46.57;;;33.93;;
36747;SDS011;22716;51.556;5.080;2022-08-19T08:03:58;52.50;;;34.37;;
36747;SDS011;22716;51.556;5.080;2022-08-19T08:06:42;50.03;;;32.97;;
36747;SDS011;22716;51.556;5.080;2022-08-19T08:09:25;48.00;;;32.47;;
36747;SDS011;22716;51.556;5.080;2022-08-19T08:11:59;44.63;;;33.17;;
36747;SDS011;22716;51.556;5.080;2022-08-19T08:14:32;45.92;;;32.40;;
36747;SDS011;22716;51.556;5.080;2022-08-19T08:17:18;50.58;;;33.67;;
36747;SDS011;22716;51.556;5.080;2022-08-19T08:19:49;46.30;;;30.92;;
36747;SDS011;22716;51.556;5.080;2022-08-19T08:22:21;47.63;;;32.53;;
36747;SDS011;22716;51.556;5.080;2022-08-19T08:25:08;41.17;;;31.60;;
36747;SDS011;22716;51.556;5.080;2022-08-19T08:27:43;43.87;;;31.00;;
36747;SDS011;22716;51.556;5.080;2022-08-19T08:30:16;43.10;;;30.30;;
36747;SDS011;22716;51.556;5.080;2022-08-19T08:32:51;44.30;;;30.23;;
36747;SDS011;22716;51.556;5.080;2022-08-19T08:35:21;47.33;;;33.70;;
36747;SDS011;22716;51.556;5.080;2022-08-19T08:37:54;47.22;;;35.97;;
36747;SDS011;22716;51.556;5.080;2022-08-19T08:40:27;53.90;;;36.77;;
36747;SDS011;22716;51.556;5.080;2022-08-19T08:43:07;49.47;;;35.60;;
36747;SDS011;22716;51.556;5.080;2022-08-19T08:46:09;58.97;;;37.70;;
36747;SDS011;22716;51.556;5.080;2022-08-19T08:48:44;60.73;;;38.70;;
36747;SDS011;22716;51.556;5.080;2022-08-19T08:51:19;56.50;;;39.30;;
36747;SDS011;22716;51.556;5.080;2022-08-19T08:53:54;54.85;;;39.45;;
36747;SDS011;22716;51.556;5.080;2022-08-19T08:56:37;59.20;;;39.57;;
36747;SDS011;22716;51.556;5.080;2022-08-19T08:59:10;57.60;;;39.33;;
36747;SDS011;22716;51.556;5.080;2022-08-19T09:01:49;57.53;;;38.57;;
36747;SDS011;22716;51.556;5.080;2022-08-19T09:04:19;62.77;;;39.43;;
36747;SDS011;22716;51.556;5.080;2022-08-19T09:06:50;55.73;;;38.33;;
36747;SDS011;22716;51.556;5.080;2022-08-19T09:09:49;52.53;;;38.13;;
36747;SDS011;22716;51.556;5.080;2022-08-19T09:12:28;52.27;;;36.57;;
36747;SDS011;22716;51.556;5.080;2022-08-19T09:15:10;55.35;;;37.17;;
36747;SDS011;22716;51.556;5.080;2022-08-19T09:17:46;48.60;;;34.10;;
36747;SDS011;22716;51.556;5.080;2022-08-19T09:20:36;54.37;;;37.80;;
36747;SDS011;22716;51.556;5.080;2022-08-19T09:23:05;47.07;;;35.00;;
36747;SDS011;22716;51.556;5.080;2022-08-19T09:25:39;49.57;;;35.00;;
36747;SDS011;22716;51.556;5.080;2022-08-19T09:28:08;50.70;;;35.47;;
36747;SDS011;22716;51.556;5.080;2022-08-19T09:30:39;47.57;;;34.93;;
36747;SDS011;22716;51.556;5.080;2022-08-19T09:33:10;55.40;;;36.47;;
36747;SDS011;22716;51.556;5.080;2022-08-19T09:35:39;55.80;;;36.47;;
36747;SDS011;22716;51.556;5.080;2022-08-19T09:38:08;48.25;;;36.97;;
36747;SDS011;22716;51.556;5.080;2022-08-19T09:40:39;53.27;;;35.70;;
36747;SDS011;22716;51.556;5.080;2022-08-19T09:43:09;50.43;;;33.57;;
36747;SDS011;22716;51.556;5.080;2022-08-19T09:45:38;53.67;;;38.67;;
36747;SDS011;22716;51.556;5.080;2022-08-19T09:48:07;73.53;;;46.53;;
36747;SDS011;22716;51.556;5.080;2022-08-19T09:50:36;110.50;;;65.37;;
36747;SDS011;22716;51.556;5.080;2022-08-19T09:53:06;64.20;;;43.63;;
36747;SDS011;22716;51.556;5.080;2022-08-19T09:55:35;110.97;;;56.65;;
36747;SDS011;22716;51.556;5.080;2022-08-19T09:58:06;61.15;;;41.38;;
36747;SDS011;22716;51.556;5.080;2022-08-19T10:00:36;48.55;;;34.28;;
36747;SDS011;22716;51.556;5.080;2022-08-19T10:03:07;45.00;;;29.60;;
36747;SDS011;22716;51.556;5.080;2022-08-19T10:05:37;45.23;;;30.77;;
36747;SDS011;22716;51.556;5.080;2022-08-19T10:08:20;32.00;;;25.63;;
36747;SDS011;22716;51.556;5.080;2022-08-19T10:10:51;29.90;;;22.30;;
36747;SDS011;22716;51.556;5.080;2022-08-19T10:13:27;33.60;;;22.65;;
36747;SDS011;22716;51.556;5.080;2022-08-19T10:16:03;31.55;;;22.85;;
36747;SDS011;22716;51.556;5.080;2022-08-19T10:18:35;29.20;;;23.17;;
36747;SDS011;22716;51.556;5.080;2022-08-19T10:21:10;31.57;;;25.60;;
36747;SDS011;22716;51.556;5.080;2022-08-19T10:26:16;39.53;;;26.88;;
36747;SDS011;22716;51.556;5.080;2022-08-19T10:28:49;38.35;;;25.60;;
36747;SDS011;22716;51.556;5.080;2022-08-19T10:31:20;30.60;;;22.75;;
36747;SDS011;22716;51.556;5.080;2022-08-19T10:33:54;29.13;;;21.00;;
36747;SDS011;22716;51.556;5.080;2022-08-19T10:36:27;20.67;;;16.93;;
36747;SDS011;22716;51.556;5.080;2022-08-19T10:39:01;27.67;;;18.08;;
36747;SDS011;22716;51.556;5.080;2022-08-19T10:41:33;24.08;;;19.08;;
36747;SDS011;22716;51.556;5.080;2022-08-19T10:44:07;30.20;;;24.50;;
36747;SDS011;22716;51.556;5.080;2022-08-19T10:46:38;33.47;;;27.08;;
36747;SDS011;22716;51.556;5.080;2022-08-19T10:49:13;32.80;;;23.30;;
36747;SDS011;22716;51.556;5.080;2022-08-19T10:52:03;35.42;;;25.23;;
36747;SDS011;22716;51.556;5.080;2022-08-19T10:57:30;37.63;;;28.65;;
36747;SDS011;22716;51.556;5.080;2022-08-19T11:00:02;45.72;;;31.38;;
36747;SDS011;22716;51.556;5.080;2022-08-19T11:02:33;45.30;;;28.75;;
36747;SDS011;22716;51.556;5.080;2022-08-19T11:05:04;44.92;;;30.52;;
36747;SDS011;22716;51.556;5.080;2022-08-19T11:07:34;42.17;;;28.20;;
36747;SDS011;22716;51.556;5.080;2022-08-19T11:10:05;37.83;;;32.27;;
36747;SDS011;22716;51.556;5.080;2022-08-19T11:12:40;41.45;;;29.35;;
36747;SDS011;22716;51.556;5.080;2022-08-19T11:15:14;41.00;;;31.03;;
36747;SDS011;22716;51.556;5.080;2022-08-19T11:17:43;36.10;;;28.27;;
36747;SDS011;22716;51.556;5.080;2022-08-19T11:20:13;41.97;;;28.20;;
36747;SDS011;22716;51.556;5.080;2022-08-19T11:22:43;39.03;;;30.67;;
36747;SDS011;22716;51.556;5.080;2022-08-19T11:25:17;40.38;;;31.40;;
36747;SDS011;22716;51.556;5.080;2022-08-19T11:27:47;40.05;;;29.52;;
36747;SDS011;22716;51.556;5.080;2022-08-19T11:30:20;39.13;;;30.57;;
36747;SDS011;22716;51.556;5.080;2022-08-19T11:32:49;45.38;;;30.17;;
36747;SDS011;22716;51.556;5.080;2022-08-19T11:35:18;37.55;;;30.98;;
36747;SDS011;22716;51.556;5.080;2022-08-19T11:37:49;35.60;;;28.38;;
36747;SDS011;22716;51.556;5.080;2022-08-19T11:40:17;35.97;;;29.70;;
36747;SDS011;22716;51.556;5.080;2022-08-19T11:42:47;42.10;;;30.77;;
36747;SDS011;22716;51.556;5.080;2022-08-19T11:45:28;38.10;;;29.75;;
36747;SDS011;22716;51.556;5.080;2022-08-19T11:47:57;34.47;;;29.08;;
36747;SDS011;22716;51.556;5.080;2022-08-19T11:50:26;34.92;;;27.23;;
36747;SDS011;22716;51.556;5.080;2022-08-19T11:52:55;37.40;;;30.87;;
36747;SDS011;22716;51.556;5.080;2022-08-19T11:55:25;41.90;;;32.28;;
36747;SDS011;22716;51.556;5.080;2022-08-19T11:57:54;40.80;;;31.17;;
36747;SDS011;22716;51.556;5.080;2022-08-19T12:00:24;42.22;;;32.97;;
36747;SDS011;22716;51.556;5.080;2022-08-19T12:02:55;45.17;;;35.00;;
36747;SDS011;22716;51.556;5.080;2022-08-19T12:05:24;39.60;;;31.85;;
36747;SDS011;22716;51.556;5.080;2022-08-19T12:07:52;41.72;;;33.90;;
36747;SDS011;22716;51.556;5.080;2022-08-19T12:10:22;42.65;;;32.85;;
36747;SDS011;22716;51.556;5.080;2022-08-19T12:12:52;42.80;;;32.92;;
36747;SDS011;22716;51.556;5.080;2022-08-19T12:15:21;45.67;;;34.93;;
36747;SDS011;22716;51.556;5.080;2022-08-19T12:17:50;43.13;;;33.53;;
36747;SDS011;22716;51.556;5.080;2022-08-19T12:20:24;48.72;;;33.70;;
36747;SDS011;22716;51.556;5.080;2022-08-19T12:22:53;40.30;;;31.00;;
36747;SDS011;22716;51.556;5.080;2022-08-19T12:25:23;40.78;;;29.10;;
36747;SDS011;22716;51.556;5.080;2022-08-19T12:27:52;32.58;;;23.77;;
36747;SDS011;22716;51.556;5.080;2022-08-19T12:30:21;30.33;;;24.70;;
36747;SDS011;22716;51.556;5.080;2022-08-19T12:32:50;33.50;;;24.20;;
36747;SDS011;22716;51.556;5.080;2022-08-19T12:35:19;33.53;;;25.15;;
36747;SDS011;22716;51.556;5.080;2022-08-19T12:37:51;26.40;;;22.38;;
36747;SDS011;22716;51.556;5.080;2022-08-19T12:40:21;32.65;;;22.65;;
36747;SDS011;22716;51.556;5.080;2022-08-19T12:42:50;27.13;;;22.02;;
36747;SDS011;22716;51.556;5.080;2022-08-19T12:45:19;31.43;;;23.23;;
36747;SDS011;22716;51.556;5.080;2022-08-19T12:47:48;26.35;;;21.73;;
36747;SDS011;22716;51.556;5.080;2022-08-19T12:50:18;26.63;;;19.30;;
36747;SDS011;22716;51.556;5.080;2022-08-19T12:52:47;25.45;;;20.13;;
36747;SDS011;22716;51.556;5.080;2022-08-19T12:55:19;27.70;;;21.63;;
36747;SDS011;22716;51.556;5.080;2022-08-19T12:57:48;25.13;;;21.23;;
36747;SDS011;22716;51.556;5.080;2022-08-19T13:00:21;22.97;;;19.70;;
36747;SDS011;22716;51.556;5.080;2022-08-19T13:02:51;22.27;;;19.05;;
36747;SDS011;22716;51.556;5.080;2022-08-19T13:05:22;25.92;;;19.42;;
36747;SDS011;22716;51.556;5.080;2022-08-19T13:07:57;23.58;;;18.63;;
36747;SDS011;22716;51.556;5.080;2022-08-19T13:10:28;24.33;;;18.63;;
36747;SDS011;22716;51.556;5.080;2022-08-19T13:13:00;27.27;;;17.97;;
36747;SDS011;22716;51.556;5.080;2022-08-19T13:15:32;20.73;;;16.67;;
36747;SDS011;22716;51.556;5.080;2022-08-19T13:18:05;22.27;;;17.98;;
36747;SDS011;22716;51.556;5.080;2022-08-19T13:20:37;20.27;;;15.93;;
36747;SDS011;22716;51.556;5.080;2022-08-19T13:23:11;23.63;;;16.90;;
36747;SDS011;22716;51.556;5.080;2022-08-19T13:25:40;25.20;;;18.85;;
36747;SDS011;22716;51.556;5.080;2022-08-19T13:28:09;21.45;;;15.77;;
36747;SDS011;22716;51.556;5.080;2022-08-19T13:30:38;22.48;;;17.65;;
36747;SDS011;22716;51.556;5.080;2022-08-19T13:33:19;19.58;;;16.13;;
36747;SDS011;22716;51.556;5.080;2022-08-19T13:35:53;18.40;;;13.60;;
36747;SDS011;22716;51.556;5.080;2022-08-19T13:38:30;10.10;;;8.23;;
36747;SDS011;22716;51.556;5.080;2022-08-19T13:41:03;9.75;;;8.77;;
36747;SDS011;22716;51.556;5.080;2022-08-19T13:43:34;11.43;;;9.48;;
36747;SDS011;22716;51.556;5.080;2022-08-19T13:46:08;14.98;;;10.55;;
36747;SDS011;22716;51.556;5.080;2022-08-19T13:48:39;12.13;;;10.65;;
36747;SDS011;22716;51.556;5.080;2022-08-19T13:51:09;14.10;;;11.52;;
36747;SDS011;22716;51.556;5.080;2022-08-19T13:53:41;13.85;;;9.73;;
36747;SDS011;22716;51.556;5.080;2022-08-19T13:56:12;19.85;;;14.48;;
36747;SDS011;22716;51.556;5.080;2022-08-19T14:01:18;19.25;;;15.85;;
36747;SDS011;22716;51.556;5.080;2022-08-19T14:03:49;22.63;;;18.35;;
36747;SDS011;22716;51.556;5.080;2022-08-19T14:06:19;23.52;;;19.83;;
36747;SDS011;22716;51.556;5.080;2022-08-19T14:08:51;22.15;;;18.63;;
36747;SDS011;22716;51.556;5.080;2022-08-19T14:11:20;23.58;;;21.02;;
36747;SDS011;22716;51.556;5.080;2022-08-19T14:13:51;23.30;;;18.67;;
36747;SDS011;22716;51.556;5.080;2022-08-19T14:16:20;21.13;;;18.80;;
36747;SDS011;22716;51.556;5.080;2022-08-19T14:18:50;22.02;;;19.63;;
36747;SDS011;22716;51.556;5.080;2022-08-19T14:21:21;20.95;;;17.90;;
36747;SDS011;22716;51.556;5.080;2022-08-19T14:23:54;22.27;;;17.73;;
36747;SDS011;22716;51.556;5.080;2022-08-19T14:26:23;22.33;;;18.55;;
36747;SDS011;22716;51.556;5.080;2022-08-19T14:28:53;21.63;;;18.60;;
36747;SDS011;22716;51.556;5.080;2022-08-19T14:31:26;24.07;;;20.17;;
36747;SDS011;22716;51.556;5.080;2022-08-19T14:33:55;23.02;;;20.10;;
36747;SDS011;22716;51.556;5.080;2022-08-19T14:36:24;23.45;;;17.63;;
36747;SDS011;22716;51.556;5.080;2022-08-19T14:38:56;21.63;;;19.33;;
36747;SDS011;22716;51.556;5.080;2022-08-19T14:41:26;24.40;;;17.20;;
36747;SDS011;22716;51.556;5.080;2022-08-19T14:43:55;23.35;;;18.15;;
36747;SDS011;22716;51.556;5.080;2022-08-19T14:46:26;20.73;;;17.88;;
36747;SDS011;22716;51.556;5.080;2022-08-19T14:48:57;25.65;;;20.98;;
36747;SDS011;22716;51.556;5.080;2022-08-19T14:51:26;15.80;;;14.18;;
36747;SDS011;22716;51.556;5.080;2022-08-19T14:53:58;21.08;;;16.13;;
36747;SDS011;22716;51.556;5.080;2022-08-19T14:56:27;17.05;;;15.02;;
36747;SDS011;22716;51.556;5.080;2022-08-19T14:58:58;20.60;;;17.80;;
36747;SDS011;22716;51.556;5.080;2022-08-19T15:01:27;19.30;;;16.02;;
36747;SDS011;22716;51.556;5.080;2022-08-19T15:03:56;15.18;;;12.77;;